Time;durP1;ratioP1;P1;durP2;ratioP2;P2;SDS_P1;SDS_P2;PMS_P1;PMS_P2;Temp;Humidity;BMP_temperature;BMP_pressure;BME280_temperature;BME280_humidity;BME280_pressure;Samples;Min_cycle;Max_cycle;Signal;HPM_P1;HPM_P2
2023/04/22 00:00:05;;;;;;;5.40;3.38;;;10.20;1.00;;;;;;5026791;28;20280;-75
2023/04/22 00:02:31;;;;;;;6.18;3.22;;;10.20;1.00;;;;;;5032995;28;20056;-75
2023/04/22 00:04:57;;;;;;;5.57;3.30;;;10.10;1.00;;;;;;5032882;28;20056;-75
2023/04/22 00:07:23;;;;;;;4.30;2.50;;;10.00;1.00;;;;;;5032962;28;20053;-75
2023/04/22 00:09:49;;;;;;;4.63;3.17;;;9.90;1.00;;;;;;5032389;28;20409;-76
2023/04/22 00:12:18;;;;;;;5.13;3.08;;;9.90;1.00;;;;;;5027838;28;20029;-75
2023/04/22 00:14:44;;;;;;;8.73;3.55;;;9.90;1.00;;;;;;5032912;28;20033;-75
2023/04/22 00:17:11;;;;;;;5.60;3.20;;;10.00;1.00;;;;;;5033567;28;20033;-75
2023/04/22 00:19:37;;;;;;;4.10;2.60;;;10.10;1.00;;;;;;5030342;28;20042;-75
2023/04/22 00:22:03;;;;;;;5.53;3.30;;;10.20;1.00;;;;;;5031904;28;20029;-75
2023/04/22 00:24:29;;;;;;;4.88;3.13;;;10.20;1.00;;;;;;5033493;28;20026;-74
2023/04/22 00:26:56;;;;;;;5.55;3.58;;;10.20;1.00;;;;;;5033164;28;20030;-75
2023/04/22 00:29:22;;;;;;;4.97;3.67;;;10.20;1.00;;;;;;5033767;28;20056;-75
2023/04/22 00:31:48;;;;;;;5.60;3.55;;;10.20;1.00;;;;;;5028657;28;20398;-75
2023/04/22 00:34:16;;;;;;;5.22;3.47;;;10.20;1.00;;;;;;5032547;28;20026;-75
2023/04/22 00:36:43;;;;;;;6.53;3.15;;;10.20;1.00;;;;;;5038315;28;20069;-75
2023/04/22 00:39:09;;;;;;;10.10;4.00;;;10.10;1.00;;;;;;5032386;28;20038;-75
2023/04/22 00:41:35;;;;;;;5.88;2.90;;;10.10;1.00;;;;;;5031146;28;20041;-75
2023/04/22 00:44:02;;;;;;;5.35;3.55;;;10.00;1.00;;;;;;5032101;28;20025;-75
2023/04/22 00:46:29;;;;;;;5.53;3.83;;;10.00;1.00;;;;;;5033281;28;20041;-75
2023/04/22 00:48:56;;;;;;;6.43;3.13;;;9.90;1.00;;;;;;5031870;28;20029;-75
2023/04/22 00:51:23;;;;;;;4.30;2.95;;;9.80;1.00;;;;;;5030934;28;20033;-75
2023/04/22 00:53:49;;;;;;;6.93;3.50;;;9.80;1.00;;;;;;5032737;28;20054;-75
2023/04/22 00:56:16;;;;;;;4.95;3.67;;;9.80;1.00;;;;;;5030441;28;20037;-75
2023/04/22 00:58:42;;;;;;;6.63;3.35;;;9.80;1.00;;;;;;5033283;28;20029;-75
2023/04/22 01:01:08;;;;;;;5.28;3.70;;;9.80;1.00;;;;;;5031504;28;20026;-75
2023/04/22 01:03:37;;;;;;;4.82;3.67;;;9.70;1.00;;;;;;5032323;28;20037;-75
2023/04/22 01:06:03;;;;;;;8.60;3.80;;;9.60;1.00;;;;;;5031956;28;20057;-75
2023/04/22 01:08:29;;;;;;;5.78;3.92;;;9.50;1.00;;;;;;5032689;28;20387;-75
2023/04/22 01:10:57;;;;;;;6.43;3.42;;;9.50;1.00;;;;;;5030669;28;20392;-75
2023/04/22 01:13:23;;;;;;;6.25;3.83;;;9.50;1.00;;;;;;5033221;28;20033;-75
2023/04/22 01:15:50;;;;;;;7.93;4.13;;;9.50;1.00;;;;;;5032448;28;20048;-75
2023/04/22 01:18:17;;;;;;;5.80;4.18;;;9.50;1.00;;;;;;5031620;28;20038;-75
2023/04/22 01:20:44;;;;;;;6.53;4.20;;;9.60;1.00;;;;;;5024807;28;20052;-76
2023/04/22 01:23:20;;;;;;;7.18;4.45;;;9.70;1.00;;;;;;5032518;28;20037;-75
2023/04/22 01:25:48;;;;;;;5.32;3.47;;;9.70;1.00;;;;;;5033309;28;20038;-75
2023/04/22 01:28:16;;;;;;;5.32;3.92;;;9.70;1.00;;;;;;5029513;28;20260;-76
2023/04/22 01:30:42;;;;;;;6.30;3.97;;;9.60;1.00;;;;;;5030223;28;20045;-75
2023/04/22 01:33:09;;;;;;;7.05;5.03;;;9.60;1.00;;;;;;5031908;28;20029;-75
2023/04/22 01:35:36;;;;;;;6.55;4.40;;;9.70;1.00;;;;;;5031991;28;20034;-75
2023/04/22 01:38:04;;;;;;;6.32;4.35;;;9.80;1.00;;;;;;5031348;28;20045;-74
2023/04/22 01:40:31;;;;;;;7.10;4.18;;;9.80;1.00;;;;;;5031619;28;20044;-75
2023/04/22 01:43:01;;;;;;;6.60;4.53;;;9.70;1.00;;;;;;5031468;28;20049;-75
2023/04/22 01:45:28;;;;;;;5.40;3.97;;;9.70;1.00;;;;;;5022119;28;20044;-75
2023/04/22 01:47:55;;;;;;;8.55;4.72;;;9.60;1.00;;;;;;5024003;28;20044;-79
2023/04/22 01:50:22;;;;;;;8.93;4.55;;;9.50;1.00;;;;;;5030746;28;20029;-75
2023/04/22 01:52:48;;;;;;;6.68;4.15;;;9.50;1.00;;;;;;5025477;28;20049;-75
2023/04/22 01:55:14;;;;;;;4.90;4.13;;;9.40;1.00;;;;;;5029590;28;20045;-75
2023/04/22 01:57:42;;;;;;;5.72;3.78;;;9.30;1.00;;;;;;5025554;28;20042;-75
2023/04/22 02:00:09;;;;;;;7.80;4.22;;;9.40;1.00;;;;;;5028420;28;20049;-75
2023/04/22 02:02:39;;;;;;;5.10;4.13;;;9.30;1.00;;;;;;5030283;28;20032;-75
2023/04/22 02:05:08;;;;;;;7.32;3.65;;;9.30;1.00;;;;;;5031422;28;20418;-76
2023/04/22 02:07:35;;;;;;;8.32;4.10;;;9.20;1.00;;;;;;5032008;28;20033;-75
2023/04/22 02:10:03;;;;;;;7.05;4.20;;;9.10;1.00;;;;;;5031185;28;20049;-75
2023/04/22 02:12:31;;;;;;;5.82;4.32;;;9.10;1.00;;;;;;5025311;28;20045;-75
2023/04/22 02:14:57;;;;;;;6.07;4.05;;;9.10;1.00;;;;;;5043657;28;20061;-79
2023/04/22 02:17:25;;;;;;;6.65;4.95;;;9.10;1.00;;;;;;5028998;28;20046;-75
2023/04/22 02:19:51;;;;;;;6.57;4.25;;;9.10;1.00;;;;;;5030920;28;20466;-75
2023/04/22 02:22:17;;;;;;;6.30;4.13;;;9.10;1.00;;;;;;5028821;28;20060;-75
2023/04/22 02:24:43;;;;;;;11.18;4.57;;;9.10;1.00;;;;;;5031000;28;20091;-75
2023/04/22 02:27:10;;;;;;;9.38;5.20;;;9.10;1.00;;;;;;5031200;28;20041;-75
2023/04/22 02:29:36;;;;;;;7.55;3.80;;;9.10;1.00;;;;;;5026144;28;20471;-77
2023/04/22 02:32:02;;;;;;;9.15;4.88;;;9.20;1.00;;;;;;5026374;28;20049;-75
2023/04/22 02:34:28;;;;;;;9.35;4.65;;;9.20;1.00;;;;;;5026388;28;20034;-75
2023/04/22 02:36:54;;;;;;;11.05;4.20;;;9.20;1.00;;;;;;5030626;28;20029;-75
2023/04/22 02:39:20;;;;;;;6.65;4.85;;;9.20;1.00;;;;;;5031809;28;20112;-75
2023/04/22 02:41:47;;;;;;;9.93;4.97;;;9.20;1.00;;;;;;5037890;28;20517;-75
2023/04/22 02:44:15;;;;;;;7.18;5.07;;;9.30;1.00;;;;;;5031375;28;20042;-75
2023/04/22 02:46:41;;;;;;;8.43;4.78;;;9.20;1.00;;;;;;5024711;28;20038;-79
2023/04/22 02:49:07;;;;;;;6.35;4.22;;;9.20;1.00;;;;;;5025143;28;20053;-75
2023/04/22 02:51:33;;;;;;;6.90;4.78;;;9.20;1.00;;;;;;5020756;28;20061;-75
2023/04/22 02:53:59;;;;;;;5.70;4.35;;;9.10;1.00;;;;;;5024855;28;20041;-75
2023/04/22 02:56:26;;;;;;;5.20;4.00;;;9.10;1.00;;;;;;5024685;28;20041;-74
2023/04/22 02:58:52;;;;;;;9.88;5.18;;;9.00;1.00;;;;;;5028521;28;20042;-75
2023/04/22 03:01:18;;;;;;;8.95;5.30;;;9.00;1.00;;;;;;5029403;28;20034;-75
2023/04/22 03:03:45;;;;;;;5.93;4.22;;;8.90;1.00;;;;;;5031307;28;20041;-75
2023/04/22 03:06:18;;;;;;;9.00;4.80;;;8.90;1.00;;;;;;5029693;28;20064;-75
2023/04/22 03:08:44;;;;;;;6.78;4.50;;;8.90;1.00;;;;;;5029871;28;20048;-75
2023/04/22 03:11:10;;;;;;;8.27;4.93;;;8.80;1.00;;;;;;5023674;28;20025;-75
2023/04/22 03:13:36;;;;;;;7.40;5.13;;;8.80;1.00;;;;;;5017878;28;20046;-75
2023/04/22 03:16:02;;;;;;;6.57;4.20;;;8.60;1.50;;;;;;5023166;28;20041;-75
2023/04/22 03:18:28;;;;;;;5.70;4.30;;;8.60;8.40;;;;;;5029221;28;20042;-75
2023/04/22 03:20:55;;;;;;;8.38;5.30;;;8.50;21.20;;;;;;5022202;28;20096;-79
2023/04/22 03:23:21;;;;;;;7.03;5.40;;;8.50;24.10;;;;;;5038487;28;20042;-75
2023/04/22 03:25:47;;;;;;;6.97;4.70;;;8.50;28.10;;;;;;5025377;28;20045;-75
2023/04/22 03:28:13;;;;;;;6.32;4.55;;;8.60;25.80;;;;;;5030626;28;20038;-75
2023/04/22 03:30:40;;;;;;;8.05;4.80;;;8.60;23.10;;;;;;5026675;28;20041;-75
2023/04/22 03:33:06;;;;;;;8.23;4.75;;;8.60;20.70;;;;;;5026506;28;20042;-76
2023/04/22 03:35:48;;;;;;;9.95;5.07;;;8.60;18.20;;;;;;5029664;28;20041;-74
2023/04/22 03:38:15;;;;;;;8.60;4.93;;;8.50;18.80;;;;;;5027263;28;20042;-75
2023/04/22 03:40:42;;;;;;;8.10;5.25;;;8.50;17.30;;;;;;5029780;28;20038;-76
2023/04/22 03:43:17;;;;;;;7.78;4.47;;;8.50;16.10;;;;;;5029830;28;20116;-75
2023/04/22 03:45:52;;;;;;;6.55;4.80;;;8.40;7.80;;;;;;5033136;28;20048;-75
2023/04/22 03:48:23;;;;;;;8.45;6.05;;;8.30;7.50;;;;;;5031187;28;20049;-75
2023/04/22 03:50:51;;;;;;;6.88;5.07;;;8.30;13.30;;;;;;5031960;28;20046;-75
2023/04/22 03:53:17;;;;;;;8.75;6.32;;;8.20;13.90;;;;;;5031473;28;20482;-75
2023/04/22 03:55:44;;;;;;;9.45;6.53;;;8.10;21.20;;;;;;5031782;28;20065;-75
2023/04/22 03:58:13;;;;;;;11.00;7.38;;;8.00;31.40;;;;;;5028263;28;20042;-75
2023/04/22 04:00:39;;;;;;;8.75;6.70;;;8.00;37.10;;;;;;5032698;28;20038;-75
2023/04/22 04:03:10;;;;;;;9.02;6.55;;;7.90;45.20;;;;;;5030073;28;20050;-75
2023/04/22 04:05:36;;;;;;;11.63;7.55;;;8.00;53.40;;;;;;5028264;28;20049;-74
2023/04/22 04:08:03;;;;;;;13.02;7.25;;;8.00;58.00;;;;;;5030157;28;20042;-76
2023/04/22 04:10:29;;;;;;;11.88;7.38;;;7.90;61.40;;;;;;5030275;28;20038;-77
2023/04/22 04:12:58;;;;;;;10.75;7.05;;;7.90;67.70;;;;;;5030340;28;20049;-76
2023/04/22 04:15:26;;;;;;;10.32;7.45;;;7.90;72.10;;;;;;5034185;28;20037;-76
2023/04/22 04:17:54;;;;;;;11.80;7.45;;;7.90;69.60;;;;;;5032774;28;20049;-74
2023/04/22 04:20:21;;;;;;;9.32;7.45;;;7.80;60.20;;;;;;5024936;28;20406;-74
2023/04/22 04:22:47;;;;;;;10.70;6.35;;;7.90;64.60;;;;;;5028066;28;20045;-74
2023/04/22 04:25:13;;;;;;;11.48;7.57;;;7.90;56.50;;;;;;5032584;28;20052;-75
2023/04/22 04:27:44;;;;;;;8.75;6.00;;;7.90;50.70;;;;;;5034054;28;20049;-75
2023/04/22 04:30:15;;;;;;;7.73;5.70;;;7.90;41.70;;;;;;5033427;28;20045;-74
2023/04/22 04:32:45;;;;;;;22.92;12.05;;;7.80;37.10;;;;;;5032375;28;20042;-74
2023/04/22 04:35:13;;;;;;;12.80;6.93;;;7.80;31.40;;;;;;5031592;28;20033;-74
2023/04/22 04:37:43;;;;;;;10.35;5.90;;;7.80;29.80;;;;;;5032468;28;20497;-75
2023/04/22 04:40:11;;;;;;;9.48;6.25;;;7.70;28.90;;;;;;5033178;28;20042;-74
2023/04/22 04:43:11;;;;;;;8.48;6.40;;;7.80;35.90;;;;;;5024375;28;20060;-75
2023/04/22 04:45:52;;;;;;;10.90;6.72;;;7.80;36.80;;;;;;5030066;28;20046;-75
2023/04/22 04:48:25;;;;;;;8.50;5.65;;;7.90;31.00;;;;;;5025163;28;20050;-74
2023/04/22 04:50:57;;;;;;;7.20;5.88;;;7.90;21.40;;;;;;5026581;28;20045;-74
2023/04/22 04:53:26;;;;;;;11.63;5.93;;;7.90;18.10;;;;;;5029114;28;20064;-75
2023/04/22 04:55:54;;;;;;;8.63;6.30;;;8.00;18.00;;;;;;5028883;28;20405;-75
2023/04/22 04:58:22;;;;;;;9.43;6.57;;;8.00;15.70;;;;;;5020549;28;20058;-75
2023/04/22 05:00:58;;;;;;;8.60;5.78;;;8.10;8.40;;;;;;5029472;28;20509;-75
2023/04/22 05:03:25;;;;;;;10.45;6.00;;;8.10;1.00;;;;;;5023178;28;20038;-74
2023/04/22 05:05:52;;;;;;;11.05;6.90;;;8.10;1.00;;;;;;5031455;28;20068;-74
2023/04/22 05:08:18;;;;;;;10.15;5.65;;;8.10;1.00;;;;;;5034371;28;20057;-75
2023/04/22 05:10:46;;;;;;;12.27;7.47;;;8.20;1.00;;;;;;5036998;28;20479;-75
2023/04/22 05:13:13;;;;;;;14.35;8.57;;;8.30;1.00;;;;;;5033278;28;20041;-75
2023/04/22 05:15:43;;;;;;;16.70;11.27;;;8.40;1.00;;;;;;5048500;28;20045;-74
2023/04/22 05:18:10;;;;;;;12.88;9.35;;;8.50;1.00;;;;;;5033624;28;20038;-75
2023/04/22 05:20:36;;;;;;;14.05;8.30;;;8.60;1.00;;;;;;5025223;28;20033;-75
2023/04/22 05:23:04;;;;;;;8.57;6.10;;;8.70;1.00;;;;;;5024908;28;20061;-79
2023/04/22 05:25:30;;;;;;;9.27;5.75;;;8.80;1.00;;;;;;5025382;28;20038;-75
2023/04/22 05:28:02;;;;;;;10.73;6.88;;;8.90;1.00;;;;;;5025487;28;20041;-75
2023/04/22 05:30:35;;;;;;;10.00;6.85;;;9.00;1.00;;;;;;5023980;28;20041;-75
2023/04/22 05:33:01;;;;;;;6.90;5.55;;;9.30;1.00;;;;;;5025395;28;20042;-75
2023/04/22 05:35:28;;;;;;;11.43;6.65;;;9.40;1.00;;;;;;5018867;28;20042;-75
2023/04/22 05:37:54;;;;;;;8.48;6.13;;;9.60;1.00;;;;;;5027893;28;20049;-74
2023/04/22 05:40:20;;;;;;;9.63;6.45;;;9.90;1.00;;;;;;5032152;28;20034;-79
2023/04/22 05:42:46;;;;;;;9.25;5.57;;;10.50;1.00;;;;;;5032696;28;20071;-75
2023/04/22 05:45:14;;;;;;;9.48;4.95;;;11.20;1.00;;;;;;5031597;28;20060;-75
2023/04/22 05:47:40;;;;;;;7.85;5.00;;;11.80;99.90;;;;;;5025190;28;20045;-75
2023/04/22 05:50:07;;;;;;;7.05;4.47;;;12.40;99.90;;;;;;5031888;28;20038;-75
2023/04/22 05:52:40;;;;;;;8.65;4.82;;;12.80;99.90;;;;;;5031277;28;20425;-75
2023/04/22 05:55:12;;;;;;;6.35;4.70;;;12.70;99.90;;;;;;5031222;28;20399;-75
2023/04/22 05:57:38;;;;;;;6.70;5.55;;;12.40;99.90;;;;;;5028882;28;20046;-75
2023/04/22 06:00:10;;;;;;;6.65;5.53;;;12.10;99.90;;;;;;5024365;28;20042;-75
2023/04/22 06:02:39;;;;;;;11.68;7.03;;;12.10;99.90;;;;;;5031251;28;20044;-75
2023/04/22 06:05:06;;;;;;;6.60;4.70;;;12.30;99.90;;;;;;5022280;28;20467;-75
2023/04/22 06:07:32;;;;;;;6.40;4.55;;;12.10;99.90;;;;;;5030202;28;20037;-75
2023/04/22 06:09:58;;;;;;;7.45;5.32;;;12.00;99.90;;;;;;5031632;28;20038;-75
2023/04/22 06:12:25;;;;;;;11.63;4.65;;;12.10;99.90;;;;;;5028637;28;20033;-75
2023/04/22 06:14:51;;;;;;;7.65;5.78;;;12.60;99.90;;;;;;5030596;28;20044;-75
2023/04/22 06:17:17;;;;;;;8.45;6.18;;;12.80;99.90;;;;;;5029063;28;20036;-75
2023/04/22 06:19:43;;;;;;;7.25;5.75;;;13.40;99.90;;;;;;5024008;28;20467;-75
2023/04/22 06:22:10;;;;;;;5.90;5.05;;;14.00;99.90;;;;;;5029412;28;20038;-75
2023/04/22 06:24:36;;;;;;;7.13;5.10;;;14.30;99.90;;;;;;5032103;28;20041;-75
2023/04/22 06:27:02;;;;;;;5.28;3.67;;;14.90;99.90;;;;;;5031333;28;20045;-75
2023/04/22 06:29:29;;;;;;;5.63;4.57;;;15.80;99.90;;;;;;5027410;28;20489;-75
2023/04/22 06:31:55;;;;;;;5.63;3.20;;;16.50;33.60;;;;;;5028577;28;20041;-76
2023/04/22 06:34:23;;;;;;;5.00;3.65;;;16.70;1.20;;;;;;5024346;28;20037;-75
2023/04/22 06:36:50;;;;;;;3.97;3.33;;;16.90;1.00;;;;;;5026129;28;20064;-77
2023/04/22 06:39:16;;;;;;;8.73;3.42;;;17.20;1.00;;;;;;5026780;28;20033;-77
2023/04/22 06:42:04;;;;;;;4.40;3.28;;;17.90;1.00;;;;;;5022330;28;20053;-76
2023/04/22 06:45:08;;;;;;;5.35;3.60;;;18.40;1.00;;;;;;5023939;28;20395;-78
2023/04/22 06:47:57;;;;;;;3.58;2.90;;;19.40;1.00;;;;;;5028404;28;20053;-77
2023/04/22 06:50:35;;;;;;;4.43;3.47;;;19.50;1.00;;;;;;5033802;28;20757;-77
2023/04/22 06:53:04;;;;;;;5.68;3.50;;;18.20;1.00;;;;;;5025833;28;20146;-77
2023/04/22 06:55:30;;;;;;;4.70;3.47;;;17.00;1.00;;;;;;5030157;28;20045;-76
2023/04/22 06:57:56;;;;;;;4.30;3.40;;;17.00;1.00;;;;;;5031222;28;20049;-77
2023/04/22 07:00:24;;;;;;;3.17;2.53;;;17.80;1.00;;;;;;5029691;28;20029;-76
2023/04/22 07:02:50;;;;;;;6.07;3.72;;;18.70;1.00;;;;;;5020509;28;20045;-78
2023/04/22 07:05:17;;;;;;;3.95;3.22;;;19.50;1.00;;;;;;5028394;28;20060;-77
2023/04/22 07:07:45;;;;;;;3.05;2.67;;;20.30;1.00;;;;;;5030861;28;20064;-77
2023/04/22 07:10:16;;;;;;;4.28;2.95;;;20.30;1.00;;;;;;5030411;28;20053;-82
2023/04/22 07:12:57;;;;;;;3.30;2.40;;;19.30;1.00;;;;;;5029488;28;20038;-76
2023/04/22 07:15:23;;;;;;;4.57;2.78;;;19.20;1.00;;;;;;5037080;28;20056;-77
2023/04/22 07:17:49;;;;;;;3.65;2.47;;;19.80;1.00;;;;;;5037594;28;20041;-76
2023/04/22 07:20:15;;;;;;;4.00;2.60;;;19.60;1.00;;;;;;5035070;28;20390;-81
2023/04/22 07:22:42;;;;;;;3.10;2.33;;;18.90;1.00;;;;;;5032057;28;20037;-75
2023/04/22 07:25:08;;;;;;;4.03;2.70;;;18.20;1.00;;;;;;5037792;28;20037;-74
2023/04/22 07:27:35;;;;;;;4.22;2.90;;;18.50;1.00;;;;;;5030760;28;20068;-75
2023/04/22 07:30:02;;;;;;;4.28;2.88;;;19.00;1.00;;;;;;5031214;28;20058;-77
2023/04/22 07:32:28;;;;;;;3.63;2.97;;;18.60;1.00;;;;;;5034159;28;20387;-75
2023/04/22 07:34:54;;;;;;;6.50;3.45;;;19.30;1.00;;;;;;5036517;28;20041;-75
2023/04/22 07:37:21;;;;;;;3.65;2.80;;;19.60;1.00;;;;;;5032743;28;20391;-75
2023/04/22 07:39:47;;;;;;;4.55;3.55;;;19.60;1.00;;;;;;5036676;28;20390;-75
2023/04/22 07:42:13;;;;;;;5.45;3.28;;;19.20;1.00;;;;;;5034473;28;20046;-76
2023/04/22 07:44:39;;;;;;;4.28;3.10;;;19.70;1.00;;;;;;5030269;28;20037;-75
2023/04/22 07:47:07;;;;;;;2.95;2.40;;;19.90;1.00;;;;;;5035705;28;20033;-77
2023/04/22 07:49:33;;;;;;;3.55;2.50;;;19.50;1.00;;;;;;5031152;28;20037;-75
2023/04/22 07:51:59;;;;;;;4.70;2.85;;;20.00;1.00;;;;;;5035883;28;20038;-75
2023/04/22 07:54:26;;;;;;;5.15;3.13;;;20.50;1.00;;;;;;5036249;28;20657;-75
2023/04/22 07:56:52;;;;;;;3.67;2.55;;;19.90;1.00;;;;;;5035769;28;20063;-75
2023/04/22 07:59:18;;;;;;;4.75;2.72;;;19.40;1.00;;;;;;5036578;28;20046;-75
2023/04/22 08:01:45;;;;;;;4.00;3.15;;;19.80;1.00;;;;;;5035943;28;20040;-74
2023/04/22 08:04:11;;;;;;;4.00;2.85;;;19.80;1.00;;;;;;5034083;28;20040;-86
2023/04/22 08:06:38;;;;;;;5.70;3.20;;;20.10;1.00;;;;;;5035377;28;20037;-75
2023/04/22 08:09:04;;;;;;;5.47;2.50;;;20.30;1.00;;;;;;5037418;28;20030;-75
2023/04/22 08:11:30;;;;;;;4.15;2.65;;;20.30;1.00;;;;;;5034723;28;20041;-76
2023/04/22 08:13:56;;;;;;;3.78;2.65;;;19.50;1.00;;;;;;5033279;28;20029;-76
2023/04/22 08:16:22;;;;;;;2.40;1.80;;;18.90;1.00;;;;;;5032993;28;20050;-76
2023/04/22 08:18:48;;;;;;;3.33;2.50;;;19.10;1.00;;;;;;5033576;28;20068;-76
2023/04/22 08:21:14;;;;;;;3.88;2.05;;;19.60;1.00;;;;;;5028590;28;20048;-76
2023/04/22 08:23:41;;;;;;;2.78;2.20;;;19.60;1.00;;;;;;5033126;28;20036;-75
2023/04/22 08:26:07;;;;;;;2.55;1.95;;;20.40;1.00;;;;;;5032385;28;20037;-78
2023/04/22 08:28:34;;;;;;;3.40;2.17;;;20.70;1.00;;;;;;5031993;28;20367;-77
2023/04/22 08:31:00;;;;;;;2.97;2.20;;;20.80;1.00;;;;;;5024214;28;20041;-75
2023/04/22 08:33:26;;;;;;;2.67;1.85;;;20.60;1.00;;;;;;5029236;28;20041;-76
2023/04/22 08:35:52;;;;;;;3.20;1.50;;;19.60;1.00;;;;;;5029298;28;20048;-77
2023/04/22 08:38:18;;;;;;;3.33;2.00;;;19.70;1.00;;;;;;5032256;28;20056;-76
2023/04/22 08:40:46;;;;;;;3.70;2.05;;;19.30;1.00;;;;;;5031245;28;20037;-77
2023/04/22 08:43:13;;;;;;;3.58;1.48;;;19.10;1.00;;;;;;5040549;28;20503;-75
2023/04/22 08:45:40;;;;;;;3.65;1.63;;;19.70;1.00;;;;;;5027756;28;20045;-75
2023/04/22 08:48:08;;;;;;;3.70;1.90;;;20.20;1.00;;;;;;5028303;28;20026;-75
2023/04/22 08:50:36;;;;;;;2.78;1.98;;;20.10;1.00;;;;;;5025189;28;20029;-76
2023/04/22 08:53:02;;;;;;;3.47;1.23;;;20.50;1.00;;;;;;5033019;28;20053;-76
2023/04/22 08:55:29;;;;;;;2.80;1.50;;;20.00;1.00;;;;;;5029563;28;20037;-75
2023/04/22 08:57:56;;;;;;;3.47;1.30;;;20.00;1.00;;;;;;5031855;28;20029;-76
2023/04/22 09:00:22;;;;;;;4.53;1.75;;;20.10;1.00;;;;;;5027725;28;20037;-79
2023/04/22 09:02:50;;;;;;;2.22;1.50;;;20.30;1.00;;;;;;5025737;28;21084;-75
2023/04/22 09:05:18;;;;;;;3.10;2.20;;;20.30;1.00;;;;;;5026274;28;20036;-75
2023/04/22 09:07:45;;;;;;;2.15;1.33;;;20.20;1.00;;;;;;5029895;28;20045;-77
2023/04/22 09:10:11;;;;;;;4.15;2.30;;;20.80;1.00;;;;;;5024343;28;20149;-76
2023/04/22 09:12:39;;;;;;;2.08;1.40;;;20.90;1.00;;;;;;5025500;28;20032;-76
2023/04/22 09:15:06;;;;;;;2.58;1.20;;;21.10;1.00;;;;;;5029925;28;20471;-75
2023/04/22 09:17:36;;;;;;;4.28;2.00;;;20.90;1.00;;;;;;5032509;28;20033;-75
2023/04/22 09:20:04;;;;;;;3.72;1.80;;;20.10;1.00;;;;;;5031853;28;20045;-75
2023/04/22 09:22:40;;;;;;;2.20;1.55;;;20.10;1.00;;;;;;5030866;28;20145;-75
2023/04/22 09:25:17;;;;;;;2.85;1.60;;;20.40;1.00;;;;;;5026175;28;20068;-76
2023/04/22 09:27:49;;;;;;;6.50;2.08;;;20.50;1.00;;;;;;5030587;28;20483;-76
2023/04/22 09:30:18;;;;;;;4.03;2.00;;;20.40;1.00;;;;;;5032166;28;20029;-75
2023/04/22 09:32:55;;;;;;;2.90;2.00;;;20.40;1.00;;;;;;5025243;28;20049;-75
2023/04/22 09:35:38;;;;;;;3.95;2.25;;;20.70;1.00;;;;;;5029594;28;20038;-76
2023/04/22 09:38:07;;;;;;;6.05;2.33;;;21.00;1.00;;;;;;5033041;28;20033;-73
2023/04/22 09:40:34;;;;;;;4.80;2.05;;;21.60;1.00;;;;;;5027636;28;20462;-75
2023/04/22 09:43:06;;;;;;;3.22;2.03;;;21.70;1.00;;;;;;5029011;28;20037;-75
2023/04/22 09:45:35;;;;;;;3.78;2.35;;;22.20;1.00;;;;;;5028810;28;20101;-75
2023/04/22 09:48:17;;;;;;;3.03;2.42;;;22.10;1.00;;;;;;5029197;28;20049;-75
2023/04/22 09:50:46;;;;;;;4.60;2.53;;;22.20;1.00;;;;;;5027731;28;20394;-77
2023/04/22 09:53:18;;;;;;;2.90;2.05;;;22.90;1.00;;;;;;5031673;28;20045;-77
2023/04/22 09:55:47;;;;;;;7.50;2.25;;;22.80;1.00;;;;;;5031629;28;20033;-75
2023/04/22 09:58:16;;;;;;;4.03;2.13;;;22.20;1.00;;;;;;5033017;28;20045;-76
2023/04/22 10:00:52;;;;;;;2.47;1.92;;;21.70;1.00;;;;;;5028752;28;20324;-76
2023/04/22 10:03:19;;;;;;;3.28;1.95;;;21.50;1.00;;;;;;5032117;28;20033;-76
2023/04/22 10:05:45;;;;;;;4.30;1.88;;;21.80;1.00;;;;;;5031449;28;20029;-75
2023/04/22 10:08:13;;;;;;;3.45;2.38;;;21.80;1.00;;;;;;5030896;28;20045;-74
2023/04/22 10:10:39;;;;;;;3.83;2.22;;;22.10;1.00;;;;;;5025467;28;20037;-76
2023/04/22 10:13:06;;;;;;;5.18;1.90;;;21.80;1.00;;;;;;5028691;28;20032;-75
2023/04/22 10:15:40;;;;;;;4.78;1.92;;;22.20;1.00;;;;;;5025577;28;20025;-75
2023/04/22 10:18:09;;;;;;;3.80;1.90;;;21.90;1.00;;;;;;5028040;28;20097;-76
2023/04/22 10:20:38;;;;;;;3.33;1.98;;;21.40;1.00;;;;;;5026568;28;20029;-74
2023/04/22 10:23:10;;;;;;;3.13;2.05;;;21.40;1.00;;;;;;5029263;28;20044;-75
2023/04/22 10:25:39;;;;;;;2.50;1.73;;;21.20;1.00;;;;;;5031346;28;20458;-76
2023/04/22 10:28:07;;;;;;;4.38;2.47;;;21.50;1.00;;;;;;5029635;28;20041;-75
2023/04/22 10:30:35;;;;;;;2.83;1.75;;;21.50;1.00;;;;;;5029796;28;20379;-75
2023/04/22 10:33:20;;;;;;;4.13;1.85;;;21.50;1.00;;;;;;5028359;28;20033;-75
2023/04/22 10:36:05;;;;;;;3.50;1.23;;;21.30;1.00;;;;;;5023834;28;20040;-75
2023/04/22 10:38:37;;;;;;;2.30;1.30;;;21.70;1.00;;;;;;5024323;28;20033;-75
2023/04/22 10:41:04;;;;;;;4.60;2.28;;;21.80;1.00;;;;;;5027570;28;20037;-75
2023/04/22 10:43:44;;;;;;;3.95;1.55;;;21.60;1.00;;;;;;5027797;28;20042;-75
2023/04/22 10:46:29;;;;;;;;;;;21.80;1.00;;;;;;5029922;28;20037;-74
2023/04/22 10:49:10;;;;;;;4.15;1.30;;;22.10;1.00;;;;;;5031964;28;19916;-75
2023/04/22 10:51:57;;;;;;;3.38;1.33;;;21.80;1.00;;;;;;5025452;28;20379;-75
2023/04/22 10:54:26;;;;;;;3.20;1.50;;;21.90;1.00;;;;;;5026648;28;20037;-75
2023/04/22 10:57:04;;;;;;;2.50;1.42;;;22.00;1.00;;;;;;5027360;28;20030;-75
2023/04/22 10:59:32;;;;;;;5.15;2.15;;;21.90;1.00;;;;;;5028790;28;20030;-75
2023/04/22 11:02:10;;;;;;;3.30;2.28;;;21.70;1.00;;;;;;5030777;28;20495;-75
2023/04/22 11:04:38;;;;;;;3.92;1.98;;;21.80;1.00;;;;;;5029580;28;20025;-75
2023/04/22 11:07:21;;;;;;;5.00;1.70;;;22.00;1.00;;;;;;5024752;28;20037;-75
2023/04/22 11:10:03;;;;;;;5.18;1.45;;;22.30;1.00;;;;;;5028355;28;20387;-84
2023/04/22 11:12:38;;;;;;;2.70;1.42;;;22.40;1.00;;;;;;5022484;28;20036;-76
2023/04/22 11:15:18;;;;;;;2.20;1.50;;;21.80;1.00;;;;;;5033064;28;20029;-75
2023/04/22 11:17:46;;;;;;;2.72;1.35;;;22.10;1.00;;;;;;5031758;28;20467;-77
2023/04/22 11:20:17;;;;;;;3.78;1.08;;;22.10;1.00;;;;;;5027353;28;20033;-77
2023/04/22 11:22:48;;;;;;;2.83;1.67;;;22.10;1.00;;;;;;5027187;28;20040;-77
2023/04/22 11:25:14;;;;;;;2.50;1.35;;;22.20;1.00;;;;;;5032758;28;20041;-75
2023/04/22 11:27:42;;;;;;;2.70;1.20;;;22.30;1.00;;;;;;5032057;28;20064;-75
2023/04/22 11:30:14;;;;;;;4.22;1.80;;;22.50;1.00;;;;;;5030873;28;20037;-76
2023/04/22 11:32:51;;;;;;;3.72;1.92;;;22.60;1.00;;;;;;5027549;28;20807;-75
2023/04/22 11:35:20;;;;;;;1.90;1.20;;;22.90;1.00;;;;;;5023130;28;20386;-75
2023/04/22 11:37:57;;;;;;;4.78;2.05;;;23.10;1.00;;;;;;5027222;28;20064;-75
2023/04/22 11:40:29;;;;;;;3.22;1.48;;;23.00;1.00;;;;;;5025339;28;20033;-75
2023/04/22 11:42:57;;;;;;;4.57;1.30;;;23.10;1.00;;;;;;5030800;28;20371;-75
2023/04/22 11:45:24;;;;;;;4.85;1.90;;;23.30;1.00;;;;;;5029969;28;20030;-76
2023/04/22 11:47:51;;;;;;;3.47;1.50;;;23.50;1.00;;;;;;5030799;28;20037;-75
2023/04/22 11:50:21;;;;;;;1.50;0.98;;;23.40;1.00;;;;;;5026796;28;20033;-76
2023/04/22 11:52:47;;;;;;;;;;;22.90;1.00;;;;;;5031579;28;20041;-76
2023/04/22 11:55:29;;;;;;;2.33;1.45;;;22.80;1.00;;;;;;5035283;28;20251;-74
2023/04/22 11:58:06;;;;;;;1.75;1.10;;;22.90;1.00;;;;;;5024708;28;20061;-74
2023/04/22 12:00:46;;;;;;;3.38;0.93;;;23.60;1.00;;;;;;5024023;28;20360;-74
2023/04/22 12:03:15;;;;;;;3.35;1.25;;;24.10;1.00;;;;;;5030671;28;20034;-75
2023/04/22 12:05:46;;;;;;;2.83;1.20;;;23.70;1.00;;;;;;5030437;28;20052;-75
2023/04/22 12:08:17;;;;;;;3.42;0.95;;;24.00;1.00;;;;;;5030346;28;20438;-75
2023/04/22 12:10:53;;;;;;;4.45;1.60;;;23.90;1.00;;;;;;5023857;28;20040;-75
2023/04/22 12:13:24;;;;;;;1.85;1.10;;;23.80;1.00;;;;;;5028921;28;20041;-75
2023/04/22 12:15:59;;;;;;;2.72;1.60;;;23.60;1.00;;;;;;5033641;28;20467;-75
2023/04/22 12:18:33;;;;;;;2.47;1.27;;;23.80;1.00;;;;;;5032795;28;20065;-76
2023/04/22 12:21:22;;;;;;;1.77;1.10;;;23.40;1.00;;;;;;5029177;28;20387;-75
2023/04/22 12:23:59;;;;;;;5.57;1.42;;;23.60;1.00;;;;;;5026675;28;20045;-75
2023/04/22 12:26:26;;;;;;;1.67;0.82;;;23.60;1.00;;;;;;5031466;28;20041;-76
2023/04/22 12:28:53;;;;;;;3.85;1.33;;;23.40;1.00;;;;;;5034199;28;20029;-75
2023/04/22 12:31:20;;;;;;;2.75;1.20;;;23.20;1.00;;;;;;5033907;28;20044;-75
2023/04/22 12:33:46;;;;;;;4.70;1.27;;;23.00;1.00;;;;;;5033527;28;20478;-76
2023/04/22 12:36:13;;;;;;;6.68;1.27;;;22.80;1.00;;;;;;5034180;28;20030;-76
2023/04/22 12:38:39;;;;;;;2.10;1.08;;;22.60;1.00;;;;;;5033251;28;20033;-76
2023/04/22 12:41:06;;;;;;;2.25;1.10;;;22.30;1.00;;;;;;5032403;28;20036;-75
2023/04/22 12:43:35;;;;;;;4.53;1.23;;;22.10;1.00;;;;;;5028490;28;20053;-75
2023/04/22 12:46:02;;;;;;;3.08;1.52;;;21.90;1.00;;;;;;5024385;28;20048;-75
2023/04/22 12:48:28;;;;;;;1.77;1.10;;;21.90;1.00;;;;;;5032181;28;20060;-75
2023/04/22 12:50:56;;;;;;;3.42;1.40;;;21.90;1.00;;;;;;5032371;28;20041;-78
2023/04/22 12:53:22;;;;;;;2.55;1.35;;;21.60;1.00;;;;;;5033958;28;20044;-76
2023/04/22 12:55:48;;;;;;;2.38;1.20;;;21.60;1.00;;;;;;5030512;28;20033;-78
2023/04/22 12:58:15;;;;;;;3.70;1.45;;;21.50;1.00;;;;;;5032519;28;20033;-77
2023/04/22 13:00:41;;;;;;;4.32;1.55;;;21.50;1.00;;;;;;5031593;28;20038;-77
2023/04/22 13:03:07;;;;;;;3.10;2.00;;;21.50;1.00;;;;;;5032604;28;20088;-78
2023/04/22 13:05:33;;;;;;;5.20;1.70;;;21.40;1.00;;;;;;5032501;28;20467;-77